sensor_id;sensor_type;location;lat;lon;timestamp;P1;durP1;ratioP1;P2;durP2;ratioP2
80840;SDS011;70254;49.200;-122.910;2023-07-31T00:03:00;5.95;;;1.95;;
80840;SDS011;70254;49.200;-122.910;2023-07-31T00:05:29;2.70;;;1.65;;
80840;SDS011;70254;49.200;-122.910;2023-07-31T00:08:09;3.30;;;1.70;;
80840;SDS011;70254;49.200;-122.910;2023-07-31T00:14:14;2.85;;;1.88;;
80840;SDS011;70254;49.200;-122.910;2023-07-31T00:16:41;2.85;;;1.92;;
80840;SDS011;70254;49.200;-122.910;2023-07-31T00:19:23;3.83;;;2.10;;
80840;SDS011;70254;49.200;-122.910;2023-07-31T00:25:04;2.60;;;1.75;;
80840;SDS011;70254;49.200;-122.910;2023-07-31T00:27:46;2.92;;;1.85;;
80840;SDS011;70254;49.200;-122.910;2023-07-31T00:30:18;3.28;;;1.73;;
80840;SDS011;70254;49.200;-122.910;2023-07-31T00:33:17;3.22;;;1.92;;
80840;SDS011;70254;49.200;-122.910;2023-07-31T00:45:17;2.35;;;1.88;;
80840;SDS011;70254;49.200;-122.910;2023-07-31T00:47:44;2.60;;;1.77;;
80840;SDS011;70254;49.200;-122.910;2023-07-31T00:50:35;2.92;;;2.15;;
80840;SDS011;70254;49.200;-122.910;2023-07-31T00:53:02;2.50;;;1.60;;
80840;SDS011;70254;49.200;-122.910;2023-07-31T00:55:34;2.80;;;1.80;;
80840;SDS011;70254;49.200;-122.910;2023-07-31T00:58:14;2.50;;;1.85;;
80840;SDS011;70254;49.200;-122.910;2023-07-31T01:00:46;2.85;;;1.75;;
80840;SDS011;70254;49.200;-122.910;2023-07-31T01:03:22;3.15;;;1.95;;
80840;SDS011;70254;49.200;-122.910;2023-07-31T01:06:06;3.17;;;1.80;;
80840;SDS011;70254;49.200;-122.910;2023-07-31T01:12:18;2.10;;;1.60;;
80840;SDS011;70254;49.200;-122.910;2023-07-31T01:15:15;2.58;;;1.73;;
80840;SDS011;70254;49.200;-122.910;2023-07-31T01:17:56;5.93;;;1.95;;
80840;SDS011;70254;49.200;-122.910;2023-07-31T01:20:26;2.38;;;1.70;;
80840;SDS011;70254;49.200;-122.910;2023-07-31T01:28:14;3.83;;;2.10;;
80840;SDS011;70254;49.200;-122.910;2023-07-31T01:30:47;5.88;;;1.80;;
80840;SDS011;70254;49.200;-122.910;2023-07-31T01:33:39;2.50;;;1.70;;
80840;SDS011;70254;49.200;-122.910;2023-07-31T01:36:09;2.88;;;1.80;;
80840;SDS011;70254;49.200;-122.910;2023-07-31T01:38:40;3.00;;;2.00;;
80840;SDS011;70254;49.200;-122.910;2023-07-31T01:41:10;4.07;;;1.90;;
80840;SDS011;70254;49.200;-122.910;2023-07-31T01:43:40;2.90;;;1.85;;
80840;SDS011;70254;49.200;-122.910;2023-07-31T01:46:26;4.03;;;1.90;;
80840;SDS011;70254;49.200;-122.910;2023-07-31T01:48:57;3.15;;;1.88;;
80840;SDS011;70254;49.200;-122.910;2023-07-31T01:51:30;3.22;;;1.90;;
80840;SDS011;70254;49.200;-122.910;2023-07-31T01:54:06;3.10;;;1.80;;
80840;SDS011;70254;49.200;-122.910;2023-07-31T01:56:33;4.47;;;2.65;;
80840;SDS011;70254;49.200;-122.910;2023-07-31T02:01:33;2.78;;;1.98;;
80840;SDS011;70254;49.200;-122.910;2023-07-31T02:15:17;3.13;;;1.80;;
80840;SDS011;70254;49.200;-122.910;2023-07-31T02:17:47;3.65;;;1.85;;
80840;SDS011;70254;49.200;-122.910;2023-07-31T02:20:17;2.75;;;1.73;;
80840;SDS011;70254;49.200;-122.910;2023-07-31T02:37:01;3.10;;;1.90;;
80840;SDS011;70254;49.200;-122.910;2023-07-31T03:00:53;3.17;;;1.90;;
80840;SDS011;70254;49.200;-122.910;2023-07-31T03:03:24;4.13;;;1.90;;
80840;SDS011;70254;49.200;-122.910;2023-07-31T03:05:53;2.70;;;1.70;;
80840;SDS011;70254;49.200;-122.910;2023-07-31T03:18:56;2.67;;;1.80;;
80840;SDS011;70254;49.200;-122.910;2023-07-31T03:21:23;2.83;;;1.77;;
80840;SDS011;70254;49.200;-122.910;2023-07-31T03:29:50;3.67;;;2.00;;
80840;SDS011;70254;49.200;-122.910;2023-07-31T03:38:13;3.40;;;2.10;;
80840;SDS011;70254;49.200;-122.910;2023-07-31T03:40:43;4.07;;;2.00;;
80840;SDS011;70254;49.200;-122.910;2023-07-31T03:43:12;3.58;;;2.28;;
80840;SDS011;70254;49.200;-122.910;2023-07-31T03:45:48;3.67;;;2.05;;
80840;SDS011;70254;49.200;-122.910;2023-07-31T03:48:19;4.55;;;2.10;;
80840;SDS011;70254;49.200;-122.910;2023-07-31T03:50:45;3.95;;;2.30;;
80840;SDS011;70254;49.200;-122.910;2023-07-31T03:53:14;3.00;;;2.05;;
80840;SDS011;70254;49.200;-122.910;2023-07-31T03:55:44;2.95;;;1.88;;
80840;SDS011;70254;49.200;-122.910;2023-07-31T03:58:11;2.78;;;1.85;;
80840;SDS011;70254;49.200;-122.910;2023-07-31T04:00:39;3.50;;;2.10;;
80840;SDS011;70254;49.200;-122.910;2023-07-31T04:03:07;2.90;;;2.28;;
80840;SDS011;70254;49.200;-122.910;2023-07-31T04:05:43;4.00;;;2.10;;
80840;SDS011;70254;49.200;-122.910;2023-07-31T04:08:14;3.40;;;2.33;;
80840;SDS011;70254;49.200;-122.910;2023-07-31T04:10:44;4.32;;;2.50;;
80840;SDS011;70254;49.200;-122.910;2023-07-31T04:13:18;5.40;;;3.05;;
80840;SDS011;70254;49.200;-122.910;2023-07-31T04:15:51;3.63;;;2.05;;
80840;SDS011;70254;49.200;-122.910;2023-07-31T04:18:18;4.03;;;1.90;;
80840;SDS011;70254;49.200;-122.910;2023-07-31T04:23:44;3.40;;;2.00;;
80840;SDS011;70254;49.200;-122.910;2023-07-31T04:29:06;3.25;;;2.00;;
80840;SDS011;70254;49.200;-122.910;2023-07-31T04:31:34;5.43;;;2.40;;
80840;SDS011;70254;49.200;-122.910;2023-07-31T04:36:58;3.67;;;1.90;;
80840;SDS011;70254;49.200;-122.910;2023-07-31T04:39:27;3.45;;;2.05;;
80840;SDS011;70254;49.200;-122.910;2023-07-31T04:45:02;3.53;;;2.08;;
80840;SDS011;70254;49.200;-122.910;2023-07-31T04:47:33;4.05;;;2.17;;
80840;SDS011;70254;49.200;-122.910;2023-07-31T04:50:02;3.80;;;2.17;;
80840;SDS011;70254;49.200;-122.910;2023-07-31T04:52:33;5.32;;;2.00;;
80840;SDS011;70254;49.200;-122.910;2023-07-31T04:55:11;4.00;;;2.33;;
80840;SDS011;70254;49.200;-122.910;2023-07-31T04:57:50;3.63;;;1.92;;
80840;SDS011;70254;49.200;-122.910;2023-07-31T05:00:19;5.13;;;2.40;;
80840;SDS011;70254;49.200;-122.910;2023-07-31T05:02:52;3.45;;;1.65;;
80840;SDS011;70254;49.200;-122.910;2023-07-31T05:05:22;6.25;;;2.58;;
80840;SDS011;70254;49.200;-122.910;2023-07-31T05:07:49;3.05;;;2.00;;
80840;SDS011;70254;49.200;-122.910;2023-07-31T05:10:15;2.55;;;1.80;;
80840;SDS011;70254;49.200;-122.910;2023-07-31T05:12:51;3.03;;;2.10;;
80840;SDS011;70254;49.200;-122.910;2023-07-31T05:17:48;3.47;;;2.08;;
80840;SDS011;70254;49.200;-122.910;2023-07-31T05:20:24;2.83;;;2.00;;
80840;SDS011;70254;49.200;-122.910;2023-07-31T05:22:51;3.15;;;1.90;;
80840;SDS011;70254;49.200;-122.910;2023-07-31T05:25:25;4.00;;;1.98;;
80840;SDS011;70254;49.200;-122.910;2023-07-31T05:28:01;3.38;;;1.95;;
80840;SDS011;70254;49.200;-122.910;2023-07-31T05:30:33;4.30;;;1.95;;
80840;SDS011;70254;49.200;-122.910;2023-07-31T05:33:03;3.60;;;2.20;;
80840;SDS011;70254;49.200;-122.910;2023-07-31T05:35:29;3.08;;;1.90;;
80840;SDS011;70254;49.200;-122.910;2023-07-31T05:37:59;2.78;;;1.80;;
80840;SDS011;70254;49.200;-122.910;2023-07-31T05:40:41;2.65;;;1.88;;
80840;SDS011;70254;49.200;-122.910;2023-07-31T05:43:11;4.93;;;1.92;;
80840;SDS011;70254;49.200;-122.910;2023-07-31T05:45:47;3.17;;;1.85;;
80840;SDS011;70254;49.200;-122.910;2023-07-31T05:48:29;3.08;;;1.73;;
80840;SDS011;70254;49.200;-122.910;2023-07-31T05:50:56;3.03;;;1.80;;
80840;SDS011;70254;49.200;-122.910;2023-07-31T05:53:31;3.85;;;1.90;;
80840;SDS011;70254;49.200;-122.910;2023-07-31T05:56:14;3.05;;;1.70;;
80840;SDS011;70254;49.200;-122.910;2023-07-31T05:58:44;2.90;;;1.63;;
80840;SDS011;70254;49.200;-122.910;2023-07-31T06:04:42;3.42;;;2.10;;
80840;SDS011;70254;49.200;-122.910;2023-07-31T06:07:08;3.47;;;1.90;;
80840;SDS011;70254;49.200;-122.910;2023-07-31T06:09:36;3.75;;;1.95;;
80840;SDS011;70254;49.200;-122.910;2023-07-31T06:12:09;3.33;;;2.05;;
80840;SDS011;70254;49.200;-122.910;2023-07-31T06:14:35;4.38;;;1.88;;
80840;SDS011;70254;49.200;-122.910;2023-07-31T06:17:02;4.45;;;2.55;;
80840;SDS011;70254;49.200;-122.910;2023-07-31T06:19:29;5.68;;;3.00;;
80840;SDS011;70254;49.200;-122.910;2023-07-31T06:21:55;4.20;;;2.50;;
80840;SDS011;70254;49.200;-122.910;2023-07-31T06:24:25;6.13;;;2.60;;
80840;SDS011;70254;49.200;-122.910;2023-07-31T06:26:51;5.63;;;2.47;;
80840;SDS011;70254;49.200;-122.910;2023-07-31T06:39:41;3.25;;;2.20;;
80840;SDS011;70254;49.200;-122.910;2023-07-31T06:42:07;6.95;;;2.47;;
80840;SDS011;70254;49.200;-122.910;2023-07-31T06:44:36;6.32;;;2.70;;
80840;SDS011;70254;49.200;-122.910;2023-07-31T06:47:06;4.03;;;2.70;;
80840;SDS011;70254;49.200;-122.910;2023-07-31T06:49:36;4.80;;;2.83;;
80840;SDS011;70254;49.200;-122.910;2023-07-31T06:52:02;4.38;;;2.03;;
80840;SDS011;70254;49.200;-122.910;2023-07-31T06:54:35;4.47;;;2.30;;
80840;SDS011;70254;49.200;-122.910;2023-07-31T06:57:01;3.85;;;2.17;;
80840;SDS011;70254;49.200;-122.910;2023-07-31T06:59:29;3.85;;;1.95;;
80840;SDS011;70254;49.200;-122.910;2023-07-31T07:05:24;5.72;;;2.38;;
80840;SDS011;70254;49.200;-122.910;2023-07-31T07:07:50;3.35;;;2.15;;
80840;SDS011;70254;49.200;-122.910;2023-07-31T07:10:17;3.22;;;2.20;;
80840;SDS011;70254;49.200;-122.910;2023-07-31T07:12:44;4.00;;;2.40;;
80840;SDS011;70254;49.200;-122.910;2023-07-31T07:15:14;4.60;;;2.60;;
80840;SDS011;70254;49.200;-122.910;2023-07-31T07:17:43;6.18;;;2.50;;
80840;SDS011;70254;49.200;-122.910;2023-07-31T07:20:10;4.43;;;2.40;;
80840;SDS011;70254;49.200;-122.910;2023-07-31T07:22:45;3.50;;;2.10;;
80840;SDS011;70254;49.200;-122.910;2023-07-31T07:25:12;3.78;;;2.28;;
80840;SDS011;70254;49.200;-122.910;2023-07-31T07:27:38;3.80;;;2.30;;
80840;SDS011;70254;49.200;-122.910;2023-07-31T07:30:05;5.57;;;2.47;;
80840;SDS011;70254;49.200;-122.910;2023-07-31T07:32:32;3.55;;;2.20;;
80840;SDS011;70254;49.200;-122.910;2023-07-31T07:35:01;3.85;;;2.70;;
80840;SDS011;70254;49.200;-122.910;2023-07-31T07:37:28;4.82;;;2.50;;
80840;SDS011;70254;49.200;-122.910;2023-07-31T07:39:54;3.55;;;2.35;;
80840;SDS011;70254;49.200;-122.910;2023-07-31T07:42:24;3.80;;;2.50;;
80840;SDS011;70254;49.200;-122.910;2023-07-31T07:44:51;3.65;;;2.35;;
80840;SDS011;70254;49.200;-122.910;2023-07-31T07:47:17;4.10;;;2.47;;
80840;SDS011;70254;49.200;-122.910;2023-07-31T07:49:44;4.05;;;2.33;;
80840;SDS011;70254;49.200;-122.910;2023-07-31T07:52:13;3.55;;;2.45;;
80840;SDS011;70254;49.200;-122.910;2023-07-31T07:54:40;4.55;;;2.40;;
80840;SDS011;70254;49.200;-122.910;2023-07-31T07:57:07;6.28;;;2.50;;
80840;SDS011;70254;49.200;-122.910;2023-07-31T07:59:33;6.20;;;2.88;;
80840;SDS011;70254;49.200;-122.910;2023-07-31T08:01:59;4.78;;;2.67;;
80840;SDS011;70254;49.200;-122.910;2023-07-31T08:04:31;4.18;;;2.75;;
80840;SDS011;70254;49.200;-122.910;2023-07-31T08:06:58;3.55;;;2.83;;
80840;SDS011;70254;49.200;-122.910;2023-07-31T08:09:24;4.18;;;2.78;;
80840;SDS011;70254;49.200;-122.910;2023-07-31T08:11:51;2.97;;;2.35;;
80840;SDS011;70254;49.200;-122.910;2023-07-31T08:14:18;4.53;;;2.70;;
80840;SDS011;70254;49.200;-122.910;2023-07-31T08:16:44;7.05;;;3.50;;
80840;SDS011;70254;49.200;-122.910;2023-07-31T08:19:13;4.90;;;3.35;;
80840;SDS011;70254;49.200;-122.910;2023-07-31T08:21:42;7.28;;;3.08;;
80840;SDS011;70254;49.200;-122.910;2023-07-31T08:24:11;4.88;;;3.15;;
80840;SDS011;70254;49.200;-122.910;2023-07-31T08:26:38;7.13;;;3.25;;
80840;SDS011;70254;49.200;-122.910;2023-07-31T08:29:08;7.95;;;3.70;;
80840;SDS011;70254;49.200;-122.910;2023-07-31T08:31:43;4.13;;;3.35;;
80840;SDS011;70254;49.200;-122.910;2023-07-31T08:34:09;5.90;;;2.88;;
80840;SDS011;70254;49.200;-122.910;2023-07-31T08:36:36;5.50;;;2.85;;
80840;SDS011;70254;49.200;-122.910;2023-07-31T08:39:02;5.13;;;2.45;;
80840;SDS011;70254;49.200;-122.910;2023-07-31T08:41:29;8.48;;;2.90;;
80840;SDS011;70254;49.200;-122.910;2023-07-31T08:47:27;3.83;;;2.63;;
80840;SDS011;70254;49.200;-122.910;2023-07-31T08:49:57;4.28;;;2.80;;
80840;SDS011;70254;49.200;-122.910;2023-07-31T08:52:23;4.65;;;2.20;;
80840;SDS011;70254;49.200;-122.910;2023-07-31T08:54:50;3.88;;;2.50;;
80840;SDS011;70254;49.200;-122.910;2023-07-31T08:57:17;4.78;;;2.63;;
80840;SDS011;70254;49.200;-122.910;2023-07-31T08:59:46;3.97;;;2.63;;
80840;SDS011;70254;49.200;-122.910;2023-07-31T09:02:13;4.95;;;2.75;;
80840;SDS011;70254;49.200;-122.910;2023-07-31T09:04:40;3.30;;;2.10;;
80840;SDS011;70254;49.200;-122.910;2023-07-31T09:07:06;5.38;;;2.35;;
80840;SDS011;70254;49.200;-122.910;2023-07-31T09:09:38;5.97;;;2.17;;
80840;SDS011;70254;49.200;-122.910;2023-07-31T09:12:08;3.70;;;2.22;;
80840;SDS011;70254;49.200;-122.910;2023-07-31T09:14:34;4.03;;;2.58;;
80840;SDS011;70254;49.200;-122.910;2023-07-31T09:17:01;3.50;;;2.22;;
80840;SDS011;70254;49.200;-122.910;2023-07-31T09:19:33;3.72;;;2.22;;
80840;SDS011;70254;49.200;-122.910;2023-07-31T09:22:08;4.22;;;2.50;;
80840;SDS011;70254;49.200;-122.910;2023-07-31T09:24:34;4.60;;;2.03;;
80840;SDS011;70254;49.200;-122.910;2023-07-31T09:27:05;4.38;;;2.40;;
80840;SDS011;70254;49.200;-122.910;2023-07-31T09:29:32;3.95;;;2.30;;
80840;SDS011;70254;49.200;-122.910;2023-07-31T09:31:58;4.82;;;2.55;;
80840;SDS011;70254;49.200;-122.910;2023-07-31T09:34:58;4.82;;;2.10;;
80840;SDS011;70254;49.200;-122.910;2023-07-31T09:37:22;4.90;;;2.38;;
80840;SDS011;70254;49.200;-122.910;2023-07-31T09:39:48;4.93;;;2.55;;
80840;SDS011;70254;49.200;-122.910;2023-07-31T09:42:26;5.70;;;2.55;;
80840;SDS011;70254;49.200;-122.910;2023-07-31T09:44:53;4.95;;;2.22;;
80840;SDS011;70254;49.200;-122.910;2023-07-31T09:47:24;4.53;;;2.70;;
80840;SDS011;70254;49.200;-122.910;2023-07-31T09:49:56;4.07;;;2.90;;
80840;SDS011;70254;49.200;-122.910;2023-07-31T09:52:22;4.50;;;2.33;;
80840;SDS011;70254;49.200;-122.910;2023-07-31T09:55:00;4.20;;;2.10;;
80840;SDS011;70254;49.200;-122.910;2023-07-31T09:57:26;4.35;;;2.50;;
80840;SDS011;70254;49.200;-122.910;2023-07-31T09:59:54;4.75;;;2.80;;
80840;SDS011;70254;49.200;-122.910;2023-07-31T10:02:21;5.57;;;2.53;;
80840;SDS011;70254;49.200;-122.910;2023-07-31T10:04:54;4.70;;;2.53;;
80840;SDS011;70254;49.200;-122.910;2023-07-31T10:07:25;4.35;;;2.28;;
80840;SDS011;70254;49.200;-122.910;2023-07-31T10:09:55;3.50;;;2.50;;
80840;SDS011;70254;49.200;-122.910;2023-07-31T10:12:28;4.10;;;2.90;;
80840;SDS011;70254;49.200;-122.910;2023-07-31T10:14:58;3.65;;;2.50;;
80840;SDS011;70254;49.200;-122.910;2023-07-31T10:17:29;5.45;;;2.85;;
80840;SDS011;70254;49.200;-122.910;2023-07-31T10:19:58;4.53;;;2.40;;
80840;SDS011;70254;49.200;-122.910;2023-07-31T10:22:29;3.42;;;2.40;;
80840;SDS011;70254;49.200;-122.910;2023-07-31T10:24:58;3.65;;;2.20;;
80840;SDS011;70254;49.200;-122.910;2023-07-31T10:27:25;3.67;;;2.45;;
80840;SDS011;70254;49.200;-122.910;2023-07-31T10:29:52;3.20;;;2.10;;
80840;SDS011;70254;49.200;-122.910;2023-07-31T10:32:21;3.28;;;2.28;;
80840;SDS011;70254;49.200;-122.910;2023-07-31T10:34:49;4.15;;;2.40;;
80840;SDS011;70254;49.200;-122.910;2023-07-31T10:40:00;4.22;;;2.05;;
80840;SDS011;70254;49.200;-122.910;2023-07-31T10:42:38;4.05;;;2.30;;
80840;SDS011;70254;49.200;-122.910;2023-07-31T10:45:42;4.32;;;2.40;;
80840;SDS011;70254;49.200;-122.910;2023-07-31T10:48:13;4.13;;;2.10;;
80840;SDS011;70254;49.200;-122.910;2023-07-31T10:50:48;3.72;;;2.30;;
80840;SDS011;70254;49.200;-122.910;2023-07-31T10:53:22;4.13;;;2.88;;
80840;SDS011;70254;49.200;-122.910;2023-07-31T10:55:59;4.07;;;2.85;;
80840;SDS011;70254;49.200;-122.910;2023-07-31T10:58:26;4.95;;;2.25;;
80840;SDS011;70254;49.200;-122.910;2023-07-31T11:00:56;3.72;;;2.42;;
80840;SDS011;70254;49.200;-122.910;2023-07-31T11:03:26;3.65;;;2.30;;
80840;SDS011;70254;49.200;-122.910;2023-07-31T11:05:59;4.13;;;2.15;;
80840;SDS011;70254;49.200;-122.910;2023-07-31T11:09:01;4.22;;;2.47;;
80840;SDS011;70254;49.200;-122.910;2023-07-31T11:11:24;4.05;;;2.22;;
80840;SDS011;70254;49.200;-122.910;2023-07-31T11:13:56;4.03;;;2.53;;
80840;SDS011;70254;49.200;-122.910;2023-07-31T11:16:29;4.63;;;2.50;;
80840;SDS011;70254;49.200;-122.910;2023-07-31T11:18:55;4.53;;;2.75;;
80840;SDS011;70254;49.200;-122.910;2023-07-31T11:21:23;3.60;;;2.58;;
80840;SDS011;70254;49.200;-122.910;2023-07-31T11:30:19;4.13;;;2.42;;
80840;SDS011;70254;49.200;-122.910;2023-07-31T11:32:46;3.75;;;2.53;;
80840;SDS011;70254;49.200;-122.910;2023-07-31T11:35:12;5.65;;;2.45;;
80840;SDS011;70254;49.200;-122.910;2023-07-31T11:37:42;5.57;;;2.40;;
80840;SDS011;70254;49.200;-122.910;2023-07-31T11:40:10;3.50;;;2.47;;
80840;SDS011;70254;49.200;-122.910;2023-07-31T11:42:37;3.75;;;2.30;;
80840;SDS011;70254;49.200;-122.910;2023-07-31T11:45:04;4.65;;;2.90;;
80840;SDS011;70254;49.200;-122.910;2023-07-31T11:47:35;9.60;;;2.67;;
80840;SDS011;70254;49.200;-122.910;2023-07-31T11:57:23;8.43;;;2.80;;
80840;SDS011;70254;49.200;-122.910;2023-07-31T11:59:50;5.07;;;2.60;;
80840;SDS011;70254;49.200;-122.910;2023-07-31T12:02:20;4.65;;;2.70;;
80840;SDS011;70254;49.200;-122.910;2023-07-31T12:04:46;4.65;;;2.60;;
80840;SDS011;70254;49.200;-122.910;2023-07-31T12:07:13;3.45;;;2.20;;
80840;SDS011;70254;49.200;-122.910;2023-07-31T12:09:55;4.63;;;2.30;;
80840;SDS011;70254;49.200;-122.910;2023-07-31T12:12:23;4.15;;;2.33;;
80840;SDS011;70254;49.200;-122.910;2023-07-31T12:14:52;4.95;;;2.53;;
80840;SDS011;70254;49.200;-122.910;2023-07-31T12:17:22;5.10;;;2.60;;
80840;SDS011;70254;49.200;-122.910;2023-07-31T12:19:48;5.15;;;2.75;;
80840;SDS011;70254;49.200;-122.910;2023-07-31T12:22:30;3.55;;;2.22;;
80840;SDS011;70254;49.200;-122.910;2023-07-31T12:24:57;3.53;;;2.40;;
80840;SDS011;70254;49.200;-122.910;2023-07-31T12:27:32;3.95;;;2.42;;
80840;SDS011;70254;49.200;-122.910;2023-07-31T12:30:01;5.57;;;2.10;;
80840;SDS011;70254;49.200;-122.910;2023-07-31T12:32:29;5.32;;;2.60;;
80840;SDS011;70254;49.200;-122.910;2023-07-31T12:34:59;3.78;;;2.55;;
80840;SDS011;70254;49.200;-122.910;2023-07-31T12:37:27;4.22;;;3.13;;
80840;SDS011;70254;49.200;-122.910;2023-07-31T12:39:54;5.35;;;3.10;;
80840;SDS011;70254;49.200;-122.910;2023-07-31T12:42:24;6.68;;;3.53;;
80840;SDS011;70254;49.200;-122.910;2023-07-31T12:44:53;6.00;;;4.28;;
80840;SDS011;70254;49.200;-122.910;2023-07-31T12:47:19;7.22;;;4.93;;
80840;SDS011;70254;49.200;-122.910;2023-07-31T12:49:46;6.60;;;4.47;;
80840;SDS011;70254;49.200;-122.910;2023-07-31T12:52:13;6.15;;;4.88;;
80840;SDS011;70254;49.200;-122.910;2023-07-31T12:54:42;6.18;;;4.75;;
80840;SDS011;70254;49.200;-122.910;2023-07-31T12:57:11;7.22;;;4.80;;
80840;SDS011;70254;49.200;-122.910;2023-07-31T12:59:41;5.68;;;3.95;;
80840;SDS011;70254;49.200;-122.910;2023-07-31T13:02:07;5.60;;;3.95;;
80840;SDS011;70254;49.200;-122.910;2023-07-31T13:04:34;4.90;;;3.13;;
80840;SDS011;70254;49.200;-122.910;2023-07-31T13:07:00;5.53;;;3.42;;
80840;SDS011;70254;49.200;-122.910;2023-07-31T13:09:27;7.55;;;3.53;;
80840;SDS011;70254;49.200;-122.910;2023-07-31T13:11:53;4.43;;;3.10;;
80840;SDS011;70254;49.200;-122.910;2023-07-31T13:14:20;4.38;;;2.65;;
80840;SDS011;70254;49.200;-122.910;2023-07-31T13:16:50;5.90;;;2.50;;
80840;SDS011;70254;49.200;-122.910;2023-07-31T13:19:16;4.47;;;2.75;;
80840;SDS011;70254;49.200;-122.910;2023-07-31T13:21:43;6.47;;;2.72;;
80840;SDS011;70254;49.200;-122.910;2023-07-31T13:24:12;8.05;;;2.70;;
80840;SDS011;70254;49.200;-122.910;2023-07-31T13:26:39;6.75;;;2.90;;
80840;SDS011;70254;49.200;-122.910;2023-07-31T13:29:06;8.13;;;2.75;;
80840;SDS011;70254;49.200;-122.910;2023-07-31T13:31:32;5.15;;;2.83;;
80840;SDS011;70254;49.200;-122.910;2023-07-31T13:33:59;8.98;;;3.45;;
80840;SDS011;70254;49.200;-122.910;2023-07-31T13:36:29;8.02;;;3.00;;
80840;SDS011;70254;49.200;-122.910;2023-07-31T13:38:59;5.18;;;2.90;;
80840;SDS011;70254;49.200;-122.910;2023-07-31T13:41:26;6.32;;;2.80;;
80840;SDS011;70254;49.200;-122.910;2023-07-31T13:44:31;3.45;;;2.28;;
80840;SDS011;70254;49.200;-122.910;2023-07-31T13:46:59;4.88;;;3.22;;
80840;SDS011;70254;49.200;-122.910;2023-07-31T13:49:29;6.18;;;2.53;;
80840;SDS011;70254;49.200;-122.910;2023-07-31T13:52:00;6.13;;;3.33;;
80840;SDS011;70254;49.200;-122.910;2023-07-31T13:54:35;5.57;;;2.95;;
80840;SDS011;70254;49.200;-122.910;2023-07-31T13:57:03;4.50;;;2.78;;
80840;SDS011;70254;49.200;-122.910;2023-07-31T13:59:40;5.75;;;2.53;;
80840;SDS011;70254;49.200;-122.910;2023-07-31T14:02:11;4.47;;;2.33;;
80840;SDS011;70254;49.200;-122.910;2023-07-31T14:04:42;6.32;;;2.17;;
80840;SDS011;70254;49.200;-122.910;2023-07-31T14:07:09;4.95;;;2.60;;
80840;SDS011;70254;49.200;-122.910;2023-07-31T14:09:48;4.07;;;2.25;;
80840;SDS011;70254;49.200;-122.910;2023-07-31T14:12:18;8.02;;;2.72;;
80840;SDS011;70254;49.200;-122.910;2023-07-31T14:14:47;4.90;;;2.88;;
80840;SDS011;70254;49.200;-122.910;2023-07-31T14:17:19;5.40;;;2.55;;
80840;SDS011;70254;49.200;-122.910;2023-07-31T14:20:05;6.72;;;2.35;;
80840;SDS011;70254;49.200;-122.910;2023-07-31T14:22:47;6.72;;;2.30;;
80840;SDS011;70254;49.200;-122.910;2023-07-31T14:27:48;9.95;;;2.75;;
80840;SDS011;70254;49.200;-122.910;2023-07-31T14:30:30;6.20;;;2.38;;
80840;SDS011;70254;49.200;-122.910;2023-07-31T14:33:14;4.90;;;2.72;;
80840;SDS011;70254;49.200;-122.910;2023-07-31T14:35:41;8.68;;;2.92;;
80840;SDS011;70254;49.200;-122.910;2023-07-31T14:38:10;4.82;;;2.60;;
80840;SDS011;70254;49.200;-122.910;2023-07-31T14:40:47;7.80;;;2.70;;
80840;SDS011;70254;49.200;-122.910;2023-07-31T14:43:17;5.90;;;2.72;;
80840;SDS011;70254;49.200;-122.910;2023-07-31T14:45:47;7.50;;;2.97;;
80840;SDS011;70254;49.200;-122.910;2023-07-31T14:48:19;6.60;;;2.50;;
80840;SDS011;70254;49.200;-122.910;2023-07-31T14:50:55;8.73;;;2.50;;
80840;SDS011;70254;49.200;-122.910;2023-07-31T14:53:38;11.35;;;2.72;;
80840;SDS011;70254;49.200;-122.910;2023-07-31T14:56:12;7.38;;;2.67;;
80840;SDS011;70254;49.200;-122.910;2023-07-31T14:58:39;6.68;;;2.50;;
80840;SDS011;70254;49.200;-122.910;2023-07-31T15:01:07;14.02;;;3.08;;
80840;SDS011;70254;49.200;-122.910;2023-07-31T15:03:40;9.65;;;2.38;;
80840;SDS011;70254;49.200;-122.910;2023-07-31T15:06:10;6.32;;;2.22;;
80840;SDS011;70254;49.200;-122.910;2023-07-31T15:08:41;10.73;;;3.05;;
80840;SDS011;70254;49.200;-122.910;2023-07-31T15:11:22;4.28;;;2.22;;
80840;SDS011;70254;49.200;-122.910;2023-07-31T15:13:49;7.13;;;2.20;;
80840;SDS011;70254;49.200;-122.910;2023-07-31T15:16:15;4.43;;;2.30;;
80840;SDS011;70254;49.200;-122.910;2023-07-31T15:21:12;11.63;;;2.55;;
80840;SDS011;70254;49.200;-122.910;2023-07-31T15:23:38;7.13;;;2.33;;
80840;SDS011;70254;49.200;-122.910;2023-07-31T15:26:22;12.05;;;3.53;;
80840;SDS011;70254;49.200;-122.910;2023-07-31T15:28:56;6.63;;;2.42;;
80840;SDS011;70254;49.200;-122.910;2023-07-31T15:35:22;10.23;;;2.83;;
80840;SDS011;70254;49.200;-122.910;2023-07-31T15:37:52;12.40;;;2.60;;
80840;SDS011;70254;49.200;-122.910;2023-07-31T15:40:23;6.07;;;2.25;;
80840;SDS011;70254;49.200;-122.910;2023-07-31T15:42:53;5.50;;;2.33;;
80840;SDS011;70254;49.200;-122.910;2023-07-31T15:45:36;5.75;;;2.65;;
80840;SDS011;70254;49.200;-122.910;2023-07-31T15:48:06;7.68;;;2.35;;
80840;SDS011;70254;49.200;-122.910;2023-07-31T15:50:42;5.15;;;2.35;;
80840;SDS011;70254;49.200;-122.910;2023-07-31T15:53:12;5.13;;;2.15;;
80840;SDS011;70254;49.200;-122.910;2023-07-31T15:55:38;3.50;;;2.10;;
80840;SDS011;70254;49.200;-122.910;2023-07-31T15:58:08;4.20;;;2.22;;
80840;SDS011;70254;49.200;-122.910;2023-07-31T16:00:37;5.65;;;2.20;;
80840;SDS011;70254;49.200;-122.910;2023-07-31T16:03:44;4.40;;;2.28;;
80840;SDS011;70254;49.200;-122.910;2023-07-31T16:06:23;3.08;;;2.03;;
80840;SDS011;70254;49.200;-122.910;2023-07-31T16:08:50;4.32;;;2.13;;
80840;SDS011;70254;49.200;-122.910;2023-07-31T16:11:24;4.35;;;2.03;;
80840;SDS011;70254;49.200;-122.910;2023-07-31T16:13:54;6.75;;;2.53;;
80840;SDS011;70254;49.200;-122.910;2023-07-31T16:16:27;4.88;;;2.45;;
80840;SDS011;70254;49.200;-122.910;2023-07-31T16:19:59;5.20;;;2.50;;
80840;SDS011;70254;49.200;-122.910;2023-07-31T16:25:56;5.10;;;2.47;;
80840;SDS011;70254;49.200;-122.910;2023-07-31T16:28:58;3.45;;;2.22;;
80840;SDS011;70254;49.200;-122.910;2023-07-31T16:31:32;3.95;;;2.05;;
80840;SDS011;70254;49.200;-122.910;2023-07-31T16:34:30;6.35;;;2.25;;
80840;SDS011;70254;49.200;-122.910;2023-07-31T16:42:42;4.85;;;2.05;;
80840;SDS011;70254;49.200;-122.910;2023-07-31T16:45:16;3.00;;;2.17;;
80840;SDS011;70254;49.200;-122.910;2023-07-31T16:48:54;3.10;;;2.17;;
80840;SDS011;70254;49.200;-122.910;2023-07-31T16:51:43;4.82;;;2.08;;
80840;SDS011;70254;49.200;-122.910;2023-07-31T17:28:22;2.95;;;1.77;;
80840;SDS011;70254;49.200;-122.910;2023-07-31T17:35:06;4.00;;;2.10;;
80840;SDS011;70254;49.200;-122.910;2023-07-31T17:48:41;3.05;;;1.90;;
80840;SDS011;70254;49.200;-122.910;2023-07-31T17:55:18;3.28;;;1.98;;
80840;SDS011;70254;49.200;-122.910;2023-07-31T17:57:54;4.13;;;1.95;;
80840;SDS011;70254;49.200;-122.910;2023-07-31T18:00:30;3.67;;;1.88;;
80840;SDS011;70254;49.200;-122.910;2023-07-31T18:32:57;4.28;;;2.00;;
80840;SDS011;70254;49.200;-122.910;2023-07-31T20:18:39;5.30;;;2.33;;
80840;SDS011;70254;49.200;-122.910;2023-07-31T20:42:26;3.65;;;1.95;;
80840;SDS011;70254;49.200;-122.910;2023-07-31T20:48:16;3.95;;;2.00;;
80840;SDS011;70254;49.200;-122.910;2023-07-31T20:50:44;3.25;;;2.00;;
80840;SDS011;70254;49.200;-122.910;2023-07-31T20:53:13;2.75;;;1.77;;